createdAt,value
2018-04-26T00:00:41.425Z,1.40
2018-04-26T00:03:08.916Z,1.30
2018-04-26T00:05:36.888Z,1.20
2018-04-26T00:08:04.436Z,1.07
2018-04-26T00:10:32.351Z,1.20
2018-04-26T00:12:59.828Z,1.07
2018-04-26T00:15:27.458Z,0.80
2018-04-26T00:17:55.308Z,1.00
2018-04-26T00:20:22.793Z,0.87
2018-04-26T00:22:50.420Z,0.93
2018-04-26T00:25:18.265Z,0.90
2018-04-26T00:27:45.969Z,1.10
2018-04-26T00:30:13.481Z,1.00
2018-04-26T00:32:40.950Z,1.10
2018-04-26T00:35:08.432Z,1.00
2018-04-26T00:37:35.977Z,1.37
2018-04-26T00:40:03.515Z,1.27
2018-04-26T00:42:31.102Z,1.17
2018-04-26T00:44:58.602Z,1.30
2018-04-26T00:47:26.087Z,1.20
2018-04-26T00:49:53.667Z,1.40
2018-04-26T00:52:21.151Z,1.57
2018-04-26T00:54:48.776Z,1.27
2018-04-26T00:57:17.025Z,1.30
2018-04-26T00:59:44.495Z,1.10
2018-04-26T01:02:12.130Z,1.40
2018-04-26T01:04:39.649Z,1.00
2018-04-26T01:07:07.180Z,1.00
2018-04-26T01:09:34.849Z,1.33
2018-04-26T01:12:02.703Z,1.40
2018-04-26T01:14:30.357Z,1.03
2018-04-26T01:16:57.842Z,0.80
2018-04-26T01:19:25.513Z,1.30
2018-04-26T01:21:53.164Z,1.20
2018-04-26T01:24:20.815Z,0.97
2018-04-26T01:26:48.413Z,1.10
2018-04-26T01:29:15.934Z,1.07
2018-04-26T01:31:43.407Z,1.23
2018-04-26T01:34:11.190Z,1.30
2018-04-26T01:36:44.546Z,1.10
2018-04-26T01:39:11.999Z,1.10
2018-04-26T01:41:39.476Z,1.00
2018-04-26T01:44:07.310Z,1.30
2018-04-26T01:46:35.158Z,0.90
2018-04-26T01:49:02.675Z,1.10
2018-04-26T01:51:30.268Z,0.90
2018-04-26T01:53:57.922Z,0.93
2018-04-26T01:56:25.621Z,1.03
2018-04-26T01:58:53.093Z,1.10
2018-04-26T02:01:20.639Z,0.90
2018-04-26T02:03:48.133Z,1.10
2018-04-26T02:06:15.623Z,1.00
2018-04-26T02:08:43.301Z,2.10
2018-04-26T02:11:10.951Z,1.50
2018-04-26T02:13:38.472Z,1.00
2018-04-26T02:16:06.216Z,1.23
2018-04-26T02:18:34.065Z,1.20
2018-04-26T02:21:01.559Z,1.03
2018-04-26T02:23:29.110Z,1.47
2018-04-26T02:25:56.631Z,1.20
2018-04-26T02:28:24.334Z,1.00
2018-04-26T02:30:51.939Z,1.30
2018-04-26T02:33:19.636Z,1.00
2018-04-26T02:35:47.247Z,1.10
2018-04-26T02:38:14.899Z,1.00
2018-04-26T02:40:42.400Z,1.10
2018-04-26T02:43:10.010Z,1.57
2018-04-26T02:45:37.551Z,1.20
2018-04-26T02:48:05.032Z,1.10
2018-04-26T02:50:32.519Z,1.13
2018-04-26T02:53:00.081Z,1.00
2018-04-26T02:55:27.732Z,1.10
2018-04-26T02:57:55.384Z,1.30
2018-04-26T03:00:23.042Z,1.27
2018-04-26T03:02:50.674Z,1.23
2018-04-26T03:05:18.207Z,1.27
2018-04-26T03:07:45.954Z,1.53
2018-04-26T03:10:13.609Z,1.20
2018-04-26T03:12:41.096Z,1.30
2018-04-26T03:15:09.006Z,1.43
2018-04-26T03:17:36.765Z,1.50
2018-04-26T03:20:04.416Z,1.57
2018-04-26T03:22:32.274Z,1.63
2018-04-26T03:24:59.758Z,1.90
2018-04-26T03:27:27.238Z,1.47
2018-04-26T03:29:56.016Z,1.20
2018-04-26T03:32:23.714Z,1.43
2018-04-26T03:34:51.321Z,1.63
2018-04-26T03:37:18.925Z,1.40
2018-04-26T03:39:46.436Z,1.37
2018-04-26T03:42:13.936Z,1.40
2018-04-26T03:44:41.403Z,1.40
2018-04-26T03:47:08.891Z,1.57
2018-04-26T03:49:36.652Z,1.43
2018-04-26T03:52:04.182Z,1.43
2018-04-26T03:54:32.156Z,1.30
2018-04-26T03:56:59.642Z,1.30
2018-04-26T03:59:27.466Z,1.40
2018-04-26T04:02:00.767Z,1.30
2018-04-26T04:04:34.173Z,1.30
2018-04-26T04:07:01.835Z,1.30
2018-04-26T04:09:29.566Z,1.17
2018-04-26T04:11:57.131Z,1.40
2018-04-26T04:14:24.623Z,1.47
2018-04-26T04:16:52.293Z,1.97
2018-04-26T04:19:19.900Z,2.13
2018-04-26T04:21:47.555Z,1.80
2018-04-26T04:24:15.122Z,1.60
2018-04-26T04:26:42.912Z,1.60
2018-04-26T04:29:10.510Z,1.63
2018-04-26T04:31:37.980Z,1.50
2018-04-26T04:34:05.804Z,1.70
2018-04-26T04:36:33.369Z,1.30
2018-04-26T04:39:00.845Z,1.17
2018-04-26T04:41:28.585Z,1.90
2018-04-26T04:43:56.065Z,1.63
2018-04-26T04:46:23.744Z,2.13
2018-04-26T04:48:51.223Z,2.00
2018-04-26T04:51:18.761Z,1.90
2018-04-26T04:53:46.501Z,2.07
2018-04-26T04:56:14.156Z,1.87
2018-04-26T04:58:41.632Z,2.93
2018-04-26T05:01:09.420Z,2.20
2018-04-26T05:03:36.921Z,1.60
2018-04-26T05:06:04.403Z,1.80
2018-04-26T05:08:31.984Z,1.97
2018-04-26T05:10:59.459Z,1.50
2018-04-26T05:13:27.142Z,1.70
2018-04-26T05:15:54.793Z,1.90
2018-04-26T05:18:22.338Z,1.80
2018-04-26T05:20:50.098Z,2.07
2018-04-26T05:23:18.107Z,1.80
2018-04-26T05:25:45.672Z,1.90
2018-04-26T05:28:13.256Z,1.43
2018-04-26T05:30:40.727Z,1.73
2018-04-26T05:33:08.205Z,2.23
2018-04-26T05:35:35.782Z,2.23
2018-04-26T05:38:03.286Z,1.97
2018-04-26T05:40:30.882Z,2.77
2018-04-26T05:42:58.594Z,2.63
2018-04-26T05:45:26.397Z,2.40
2018-04-26T05:47:54.092Z,2.20
2018-04-26T05:50:21.944Z,1.93
2018-04-26T05:52:49.417Z,2.07
2018-04-26T05:55:16.910Z,1.93
2018-04-26T05:57:44.659Z,2.20
2018-04-26T06:00:12.317Z,2.40
2018-04-26T06:02:39.799Z,1.90
2018-04-26T06:05:07.430Z,2.17
2018-04-26T06:07:34.913Z,2.13
2018-04-26T06:10:02.594Z,2.60
2018-04-26T06:12:30.239Z,2.20
2018-04-26T06:14:57.887Z,2.67
2018-04-26T06:17:25.414Z,2.73
2018-04-26T06:19:52.897Z,2.50
2018-04-26T06:22:20.375Z,2.13
2018-04-26T06:24:48.335Z,2.17
2018-04-26T06:27:15.811Z,2.87
2018-04-26T06:29:43.419Z,2.13
2018-04-26T06:32:11.071Z,2.07
2018-04-26T06:34:38.728Z,2.73
2018-04-26T06:37:06.249Z,2.97
2018-04-26T06:39:33.854Z,2.77
2018-04-26T06:42:01.388Z,3.27
2018-04-26T06:44:29.101Z,2.40
2018-04-26T06:46:56.569Z,2.40
2018-04-26T06:49:24.106Z,2.70
2018-04-26T06:51:51.713Z,2.30
2018-04-26T06:54:19.191Z,2.23
2018-04-26T06:56:46.971Z,3.17
2018-04-26T06:59:14.444Z,2.07
2018-04-26T07:01:42.280Z,2.43
2018-04-26T07:04:09.757Z,2.17
2018-04-26T07:06:37.239Z,2.70
2018-04-26T07:09:05.681Z,2.70
2018-04-26T07:11:33.185Z,2.13
2018-04-26T07:14:00.940Z,2.77
2018-04-26T07:16:28.443Z,2.60
2018-04-26T07:18:55.939Z,1.87
2018-04-26T07:21:23.941Z,1.90
2018-04-26T07:23:51.595Z,2.37
2018-04-26T07:26:19.207Z,3.07
2018-04-26T07:28:46.904Z,2.63
2018-04-26T07:31:14.560Z,2.67
2018-04-26T07:33:42.071Z,2.60
2018-04-26T07:36:09.822Z,2.67
2018-04-26T07:38:37.497Z,3.50
2018-04-26T07:41:05.308Z,2.00
2018-04-26T07:43:33.024Z,2.43
2018-04-26T07:46:00.631Z,2.50
2018-04-26T07:48:28.527Z,2.60
2018-04-26T07:50:56.334Z,2.20
2018-04-26T07:53:24.497Z,2.20
2018-04-26T07:55:51.977Z,1.73
2018-04-26T07:58:19.487Z,3.10
2018-04-26T08:00:46.978Z,2.40
2018-04-26T08:03:14.644Z,2.03
2018-04-26T08:05:42.123Z,2.40
2018-04-26T08:08:09.616Z,2.37
2018-04-26T08:10:37.166Z,2.27
2018-04-26T08:13:04.662Z,2.10
2018-04-26T08:15:32.148Z,3.00
2018-04-26T08:17:59.646Z,2.57
2018-04-26T08:20:27.133Z,2.13
2018-04-26T08:22:54.620Z,2.43
2018-04-26T08:25:22.248Z,2.03
2018-04-26T08:27:49.721Z,4.13
2018-04-26T08:30:17.260Z,3.00
2018-04-26T08:32:44.751Z,2.07
2018-04-26T08:35:12.234Z,2.47
2018-04-26T08:37:39.772Z,2.67
2018-04-26T08:40:07.243Z,2.20
2018-04-26T08:42:34.732Z,2.10
2018-04-26T08:45:02.245Z,2.60
2018-04-26T08:47:29.736Z,2.10
2018-04-26T08:49:57.237Z,2.80
2018-04-26T08:52:24.804Z,2.00
2018-04-26T08:54:52.260Z,2.50
2018-04-26T08:57:19.920Z,2.13
2018-04-26T08:59:47.416Z,2.33
2018-04-26T09:02:14.911Z,2.10
2018-04-26T09:04:42.391Z,3.30
2018-04-26T09:07:09.856Z,2.23
2018-04-26T09:09:37.383Z,2.13
2018-04-26T09:12:04.879Z,2.10
2018-04-26T09:14:32.362Z,1.97
2018-04-26T09:16:59.844Z,2.00
2018-04-26T09:19:27.341Z,2.57
2018-04-26T09:21:54.916Z,2.07
2018-04-26T09:24:22.378Z,1.80
2018-04-26T09:26:49.868Z,2.60
2018-04-26T09:29:17.989Z,2.00
2018-04-26T09:31:45.484Z,2.00
2018-04-26T09:34:12.977Z,1.73
2018-04-26T09:36:40.493Z,2.27
2018-04-26T09:39:07.998Z,1.70
2018-04-26T09:41:35.477Z,2.40
2018-04-26T09:44:02.972Z,2.60
2018-04-26T09:46:30.463Z,2.33
2018-04-26T09:48:57.948Z,2.70
2018-04-26T09:51:25.443Z,3.20
2018-04-26T09:53:52.973Z,2.60
2018-04-26T09:56:20.484Z,2.33
2018-04-26T09:58:48.124Z,2.00
2018-04-26T10:01:20.646Z,2.30
2018-04-26T10:03:53.858Z,2.10
2018-04-26T10:06:27.844Z,2.60
2018-04-26T10:08:55.363Z,2.40
2018-04-26T10:11:22.866Z,2.20
2018-04-26T10:13:50.536Z,3.83
2018-04-26T10:16:18.033Z,2.40
2018-04-26T10:18:45.524Z,2.13
2018-04-26T10:21:13.045Z,1.93
2018-04-26T10:23:40.549Z,2.10
2018-04-26T10:26:08.056Z,2.10
2018-04-26T10:28:35.563Z,2.40
2018-04-26T10:31:03.056Z,2.37
2018-04-26T10:33:30.688Z,2.17
2018-04-26T10:35:58.179Z,2.00
2018-04-26T10:38:25.719Z,2.00
2018-04-26T10:40:53.216Z,1.93
2018-04-26T10:43:20.699Z,2.50
2018-04-26T10:45:48.177Z,2.23
2018-04-26T10:48:15.659Z,1.90
2018-04-26T10:50:43.145Z,2.17
2018-04-26T10:53:10.708Z,2.30
2018-04-26T10:55:38.216Z,2.20
2018-04-26T10:58:05.744Z,2.23
2018-04-26T11:00:33.299Z,2.07
2018-04-26T11:03:00.780Z,2.00
2018-04-26T11:05:28.857Z,1.77
2018-04-26T11:07:56.360Z,2.53
2018-04-26T11:10:23.834Z,2.60
2018-04-26T11:12:51.320Z,2.20
2018-04-26T11:15:18.821Z,2.67
2018-04-26T11:17:46.302Z,1.83
2018-04-26T11:20:13.840Z,2.37
2018-04-26T11:22:41.318Z,2.40
2018-04-26T11:25:08.804Z,2.33
2018-04-26T11:27:36.295Z,2.33
2018-04-26T11:30:03.979Z,2.17
2018-04-26T11:32:31.468Z,2.47
2018-04-26T11:34:58.960Z,2.00
2018-04-26T11:37:26.616Z,2.03
2018-04-26T11:39:54.132Z,2.47
2018-04-26T11:42:21.627Z,2.07
2018-04-26T11:44:49.112Z,1.60
2018-04-26T11:47:16.615Z,2.00
2018-04-26T11:49:44.108Z,2.07
2018-04-26T11:52:11.583Z,2.23
2018-04-26T11:54:39.069Z,1.97
2018-04-26T11:57:06.561Z,1.83
2018-04-26T11:59:34.060Z,1.73
2018-04-26T12:02:01.563Z,2.83
2018-04-26T12:04:29.084Z,1.93
2018-04-26T12:06:56.596Z,1.73
2018-04-26T12:09:24.143Z,1.40
2018-04-26T12:11:51.652Z,2.00
2018-04-26T12:14:19.386Z,2.00
2018-04-26T12:16:47.036Z,2.00
2018-04-26T12:19:14.689Z,1.90
2018-04-26T12:21:42.174Z,1.90
2018-04-26T12:24:09.660Z,2.47
2018-04-26T12:26:37.298Z,1.70
2018-04-26T12:29:04.795Z,1.90
2018-04-26T12:31:32.540Z,1.73
2018-04-26T12:34:00.515Z,1.73
2018-04-26T12:36:28.634Z,1.87
2018-04-26T12:38:56.271Z,1.70
2018-04-26T12:41:23.978Z,1.50
2018-04-26T12:43:52.028Z,1.57
2018-04-26T12:46:19.555Z,1.70
2018-04-26T12:48:47.047Z,2.27
2018-04-26T12:51:14.579Z,1.60
2018-04-26T12:53:42.060Z,1.50
2018-04-26T12:56:09.759Z,1.63
2018-04-26T12:58:37.389Z,1.60
2018-04-26T13:01:04.994Z,1.50
2018-04-26T13:03:32.485Z,2.47
2018-04-26T13:06:00.037Z,1.50
2018-04-26T13:08:27.527Z,1.60
2018-04-26T13:10:55.218Z,1.53
2018-04-26T13:13:22.752Z,2.37
2018-04-26T13:15:50.229Z,1.50
2018-04-26T13:18:17.837Z,1.40
2018-04-26T13:20:45.369Z,1.57
2018-04-26T13:23:12.904Z,1.30
2018-04-26T13:25:40.592Z,1.57
2018-04-26T13:28:08.078Z,1.63
2018-04-26T13:30:35.702Z,1.57
2018-04-26T13:33:03.367Z,1.70
2018-04-26T13:35:31.006Z,1.23
2018-04-26T13:37:58.497Z,1.87
2018-04-26T13:40:26.128Z,2.40
2018-04-26T13:42:53.729Z,1.50
2018-04-26T13:45:21.382Z,1.30
2018-04-26T13:47:48.875Z,1.20
2018-04-26T13:50:16.534Z,1.40
2018-04-26T13:52:44.192Z,1.43
2018-04-26T13:55:11.677Z,1.70
2018-04-26T13:57:39.153Z,2.57
2018-04-26T14:00:06.651Z,1.60
2018-04-26T14:02:34.143Z,1.60
2018-04-26T14:05:01.636Z,1.50
2018-04-26T14:07:29.283Z,1.40
2018-04-26T14:09:56.788Z,1.67
2018-04-26T14:12:24.324Z,1.40
2018-04-26T14:14:51.995Z,1.53
2018-04-26T14:17:19.618Z,1.30
2018-04-26T14:19:47.110Z,1.13
2018-04-26T14:22:14.585Z,2.37
2018-04-26T14:24:42.106Z,1.10
2018-04-26T14:27:09.592Z,1.70
2018-04-26T14:29:37.179Z,1.40
2018-04-26T14:32:04.614Z,1.50
2018-04-26T14:34:32.088Z,1.60
2018-04-26T14:36:59.581Z,1.43
2018-04-26T14:39:27.071Z,1.20
2018-04-26T14:41:54.550Z,1.27
2018-04-26T14:44:22.238Z,1.43
2018-04-26T14:46:49.726Z,1.97
2018-04-26T14:49:17.340Z,1.30
2018-04-26T14:51:44.828Z,1.13
2018-04-26T14:54:12.326Z,1.60
2018-04-26T14:56:39.811Z,1.40
2018-04-26T14:59:07.301Z,1.23
2018-04-26T15:01:34.815Z,1.10
2018-04-26T15:04:02.296Z,1.57
2018-04-26T15:06:29.802Z,1.63
2018-04-26T15:08:57.292Z,1.93
2018-04-26T15:11:24.787Z,1.30
2018-04-26T15:13:52.311Z,1.93
2018-04-26T15:16:19.814Z,1.70
2018-04-26T15:18:47.297Z,1.20
2018-04-26T15:21:14.925Z,1.57
2018-04-26T15:23:42.400Z,1.10
2018-04-26T15:26:09.900Z,1.00
2018-04-26T15:28:37.418Z,1.27
2018-04-26T15:31:04.941Z,1.00
2018-04-26T15:33:32.435Z,1.10
2018-04-26T15:35:59.909Z,1.33
2018-04-26T15:38:27.392Z,1.23
2018-04-26T15:40:54.867Z,1.30
2018-04-26T15:43:22.332Z,1.00
2018-04-26T15:45:49.831Z,1.30
2018-04-26T15:48:17.332Z,1.40
2018-04-26T15:50:51.906Z,1.43
2018-04-26T15:53:25.295Z,1.67
2018-04-26T15:55:58.500Z,1.50
2018-04-26T15:58:32.719Z,1.00
2018-04-26T16:01:11.811Z,1.10
2018-04-26T16:03:45.087Z,1.33
2018-04-26T16:06:30.248Z,1.13
2018-04-26T16:09:03.643Z,1.57
2018-04-26T16:11:36.934Z,1.23
2018-04-26T16:17:25.075Z,1.23
2018-04-26T16:20:04.050Z,1.17
2018-04-26T16:22:43.028Z,1.40
2018-04-26T16:25:16.644Z,1.53
2018-04-26T16:27:49.893Z,1.40
2018-04-26T16:30:23.027Z,1.13
2018-04-26T16:33:02.207Z,1.60
2018-04-26T16:35:36.412Z,1.37
2018-04-26T16:38:14.801Z,1.10
2018-04-26T16:40:42.243Z,1.47
2018-04-26T16:43:09.801Z,0.90
2018-04-26T16:45:37.260Z,1.13
2018-04-26T16:48:04.760Z,1.13
2018-04-26T16:50:32.310Z,1.50
2018-04-26T16:52:59.822Z,1.17
2018-04-26T16:55:27.393Z,1.43
2018-04-26T16:57:54.875Z,0.90
2018-04-26T17:00:22.417Z,1.03
2018-04-26T17:02:49.895Z,1.40
2018-04-26T17:05:17.411Z,1.00
2018-04-26T17:07:44.972Z,1.10
2018-04-26T17:10:12.460Z,1.87
2018-04-26T17:12:39.953Z,0.93
2018-04-26T17:15:07.444Z,1.07
2018-04-26T17:17:34.935Z,1.40
2018-04-26T17:20:02.469Z,1.40
2018-04-26T17:22:29.965Z,1.47
2018-04-26T17:24:57.456Z,1.43
2018-04-26T17:27:24.995Z,1.43
2018-04-26T17:29:52.490Z,1.10
2018-04-26T17:32:19.979Z,1.60
2018-04-26T17:34:47.586Z,1.37
2018-04-26T17:37:15.060Z,1.43
2018-04-26T17:39:42.575Z,1.47
2018-04-26T17:42:10.065Z,1.50
2018-04-26T17:44:37.739Z,1.37
2018-04-26T17:47:05.227Z,1.33
2018-04-26T17:49:32.759Z,1.30
2018-04-26T17:52:00.311Z,1.20
2018-04-26T17:54:27.843Z,1.10
2018-04-26T17:56:55.313Z,1.40
2018-04-26T17:59:22.927Z,2.00
2018-04-26T18:01:50.419Z,1.57
2018-04-26T18:04:17.968Z,1.00
2018-04-26T18:06:45.463Z,1.50
2018-04-26T18:09:12.967Z,1.83
2018-04-26T18:11:40.545Z,1.67
2018-04-26T18:14:08.032Z,1.50
2018-04-26T18:16:35.631Z,1.50
2018-04-26T18:19:03.135Z,1.30
2018-04-26T18:21:30.626Z,1.20
2018-04-26T18:23:58.120Z,1.33
2018-04-26T18:26:25.653Z,1.70
2018-04-26T18:28:53.202Z,1.47
2018-04-26T18:31:20.762Z,1.50
2018-04-26T18:33:48.251Z,1.40
2018-04-26T18:36:15.736Z,1.30
2018-04-26T18:38:43.218Z,1.60
2018-04-26T18:41:10.697Z,1.50
2018-04-26T18:43:38.249Z,1.37
2018-04-26T18:46:05.784Z,1.43
2018-04-26T18:48:33.303Z,1.63
2018-04-26T18:51:01.207Z,1.20
2018-04-26T18:53:28.792Z,2.13
2018-04-26T18:55:56.303Z,1.80
2018-04-26T18:58:24.640Z,1.40
2018-04-26T19:00:52.127Z,1.67
2018-04-26T19:03:20.180Z,1.80
2018-04-26T19:05:47.846Z,1.70
2018-04-26T19:08:15.351Z,1.60
2018-04-26T19:10:42.869Z,1.30
2018-04-26T19:13:10.395Z,1.30
2018-04-26T19:15:38.063Z,1.70
2018-04-26T19:18:05.638Z,1.40
2018-04-26T19:20:33.160Z,1.53
2018-04-26T19:23:00.671Z,1.33
2018-04-26T19:25:28.172Z,1.13
2018-04-26T19:27:55.774Z,1.17
2018-04-26T19:30:23.265Z,1.50
2018-04-26T19:32:50.803Z,1.73
2018-04-26T19:35:18.914Z,1.00
2018-04-26T19:37:46.420Z,1.00
2018-04-26T19:40:13.931Z,1.00
2018-04-26T19:42:41.443Z,1.40
2018-04-26T19:45:08.932Z,1.40
2018-04-26T19:47:36.467Z,1.17
2018-04-26T19:50:03.999Z,0.90
2018-04-26T19:52:31.606Z,1.00
2018-04-26T19:54:59.241Z,1.00
2018-04-26T19:57:26.760Z,1.10
2018-04-26T19:59:54.320Z,1.20
2018-04-26T20:02:21.832Z,1.33
2018-04-26T20:04:49.334Z,1.07
2018-04-26T20:07:16.910Z,2.30
2018-04-26T20:09:44.406Z,1.47
2018-04-26T20:12:11.923Z,1.50
2018-04-26T20:14:39.440Z,1.20
2018-04-26T20:17:06.952Z,1.03
2018-04-26T20:19:34.477Z,1.10
2018-04-26T20:22:01.972Z,2.17
2018-04-26T20:24:29.492Z,1.53
2018-04-26T20:26:57.007Z,1.23
2018-04-26T20:29:24.558Z,1.30
2018-04-26T20:31:52.048Z,1.23
2018-04-26T20:34:19.574Z,1.30
2018-04-26T20:36:47.070Z,1.00
2018-04-26T20:39:15.125Z,1.10
2018-04-26T20:41:48.317Z,1.40
2018-04-26T20:44:21.669Z,1.17
2018-04-26T20:46:49.262Z,1.23
2018-04-26T20:49:16.833Z,1.00
2018-04-26T20:51:44.331Z,0.80
2018-04-26T20:54:11.994Z,1.10
2018-04-26T20:56:39.488Z,1.33
2018-04-26T20:59:07.034Z,1.10
2018-04-26T21:01:34.552Z,1.27
2018-04-26T21:04:02.044Z,1.40
2018-04-26T21:06:29.538Z,1.20
2018-04-26T21:08:57.011Z,1.00
2018-04-26T21:11:24.610Z,1.10
2018-04-26T21:13:52.120Z,0.97
2018-04-26T21:16:19.617Z,1.33
2018-04-26T21:18:47.138Z,1.30
2018-04-26T21:21:14.648Z,1.00
2018-04-26T21:23:42.124Z,1.33
2018-04-26T21:26:09.666Z,1.30
2018-04-26T21:28:37.236Z,1.30
2018-04-26T21:31:04.769Z,1.53
2018-04-26T21:33:32.266Z,1.50
2018-04-26T21:35:59.761Z,1.57
2018-04-26T21:38:27.239Z,1.50
2018-04-26T21:40:54.781Z,1.60
2018-04-26T21:43:22.299Z,1.70
2018-04-26T21:45:49.788Z,1.40
2018-04-26T21:48:17.312Z,1.77
2018-04-26T21:50:50.361Z,1.67
2018-04-26T21:53:23.553Z,1.30
2018-04-26T21:55:56.609Z,1.10
2018-04-26T21:58:29.840Z,1.00
2018-04-26T22:01:02.935Z,1.57
2018-04-26T22:03:31.314Z,1.10
2018-04-26T22:05:58.845Z,1.50
2018-04-26T22:08:26.339Z,1.30
2018-04-26T22:10:53.867Z,1.20
2018-04-26T22:13:21.542Z,1.47
2018-04-26T22:15:49.065Z,1.10
2018-04-26T22:18:16.535Z,2.50
2018-04-26T22:20:44.034Z,1.83
2018-04-26T22:23:11.544Z,1.50
2018-04-26T22:25:39.024Z,1.63
2018-04-26T22:28:06.564Z,1.27
2018-04-26T22:30:34.046Z,1.10
2018-04-26T22:33:01.547Z,1.20
2018-04-26T22:35:30.843Z,1.23
2018-04-26T22:37:58.374Z,1.60
2018-04-26T22:40:25.870Z,1.30
2018-04-26T22:42:53.420Z,1.10
2018-04-26T22:45:20.936Z,1.53
2018-04-26T22:47:48.882Z,1.33
2018-04-26T22:50:16.361Z,1.30
2018-04-26T22:52:43.896Z,1.50
2018-04-26T22:55:11.395Z,1.50
2018-04-26T22:57:38.884Z,1.50
2018-04-26T23:00:06.421Z,2.07
2018-04-26T23:02:33.710Z,1.60
2018-04-26T23:05:01.230Z,1.43
2018-04-26T23:07:28.738Z,1.63
2018-04-26T23:09:56.225Z,1.10
2018-04-26T23:12:23.846Z,1.30
2018-04-26T23:14:51.362Z,1.23
2018-04-26T23:17:18.851Z,2.03
2018-04-26T23:19:46.862Z,1.40
2018-04-26T23:22:14.409Z,1.10
2018-04-26T23:24:41.956Z,1.40
2018-04-26T23:27:09.452Z,1.20
2018-04-26T23:29:36.957Z,1.30
2018-04-26T23:32:04.442Z,1.30
2018-04-26T23:34:31.933Z,1.27
2018-04-26T23:36:59.435Z,1.50
2018-04-26T23:39:26.943Z,1.47
2018-04-26T23:41:54.430Z,1.27
2018-04-26T23:44:21.919Z,0.80
2018-04-26T23:46:49.398Z,1.17
2018-04-26T23:49:16.880Z,1.20
2018-04-26T23:51:44.414Z,1.20
2018-04-26T23:54:11.922Z,1.40
2018-04-26T23:56:39.446Z,1.77
2018-04-26T23:59:06.976Z,1.10
